sensor_id;sensor_type;location;lat;lon;timestamp;P1;P2;P0
82817;PMS5003;72572;46.824;-71.222;2024-01-06T00:00:46;9.55;9.25;5.3
82817;PMS5003;72572;46.824;-71.222;2024-01-06T00:03:09;8.5;6.45;3.35
82817;PMS5003;72572;46.824;-71.222;2024-01-06T00:05:35;9.52;7.05;4.48
82817;PMS5003;72572;46.824;-71.222;2024-01-06T00:08:02;5.5;5.5;3.05
82817;PMS5003;72572;46.824;-71.222;2024-01-06T00:10:27;8.45;6.9;3.75
82817;PMS5003;72572;46.824;-71.222;2024-01-06T00:12:53;7.45;6;3.25
82817;PMS5003;72572;46.824;-71.222;2024-01-06T00:15:16;8.5;7.7;5
82817;PMS5003;72572;46.824;-71.222;2024-01-06T00:17:41;11.3;7.2;4
82817;PMS5003;72572;46.824;-71.222;2024-01-06T00:20:09;5.4;5;3.9
82817;PMS5003;72572;46.824;-71.222;2024-01-06T00:22:32;5.86;5.86;3.76
82817;PMS5003;72572;46.824;-71.222;2024-01-06T00:24:57;8.85;7.75;5.2
82817;PMS5003;72572;46.824;-71.222;2024-01-06T00:27:24;9.9;8.3;5.2
82817;PMS5003;72572;46.824;-71.222;2024-01-06T00:29:49;8.7;5.7;3.9
82817;PMS5003;72572;46.824;-71.222;2024-01-06T00:32:15;9.15;7;4
82817;PMS5003;72572;46.824;-71.222;2024-01-06T00:34:41;7;6.5;4.1
82817;PMS5003;72572;46.824;-71.222;2024-01-06T00:37:04;6.4;5.6;3.4
82817;PMS5003;72572;46.824;-71.222;2024-01-06T00:39:31;7.38;5.71;3.38
82817;PMS5003;72572;46.824;-71.222;2024-01-06T00:41:57;8.1;6.7;3.6
82817;PMS5003;72572;46.824;-71.222;2024-01-06T00:44:22;7;6.05;4
82817;PMS5003;72572;46.824;-71.222;2024-01-06T00:46:47;5.75;5.75;3.9
82817;PMS5003;72572;46.824;-71.222;2024-01-06T00:49:13;6.4;6.1;3.65
82817;PMS5003;72572;46.824;-71.222;2024-01-06T00:51:37;7.4;6.9;3.8
82817;PMS5003;72572;46.824;-71.222;2024-01-06T00:54:01;6.95;6.4;5.9
82817;PMS5003;72572;46.824;-71.222;2024-01-06T00:56:29;5.24;4.76;3.52
82817;PMS5003;72572;46.824;-71.222;2024-01-06T00:58:54;6.6;6.5;4
82817;PMS5003;72572;46.824;-71.222;2024-01-06T01:01:20;13.9;9.85;6.4
82817;PMS5003;72572;46.824;-71.222;2024-01-06T01:03:43;10.6;9.45;7.1
82817;PMS5003;72572;46.824;-71.222;2024-01-06T01:06:10;10;8.95;6.2
82817;PMS5003;72572;46.824;-71.222;2024-01-06T01:08:35;13.3;12.6;9.6
82817;PMS5003;72572;46.824;-71.222;2024-01-06T01:11:00;15.8;14.75;7.1
82817;PMS5003;72572;46.824;-71.222;2024-01-06T01:13:27;13.57;13.1;8.95
82817;PMS5003;72572;46.824;-71.222;2024-01-06T01:15:49;19.25;15.15;8
82817;PMS5003;72572;46.824;-71.222;2024-01-06T01:18:15;15;14.4;9.8
82817;PMS5003;72572;46.824;-71.222;2024-01-06T01:20:42;14.1;12.65;9.55
82817;PMS5003;72572;46.824;-71.222;2024-01-06T01:23:08;18.15;15.6;9.95
82817;PMS5003;72572;46.824;-71.222;2024-01-06T01:25:31;23.65;18.6;10.65
82817;PMS5003;72572;46.824;-71.222;2024-01-06T01:28:07;15.24;15.24;10
82817;PMS5003;72572;46.824;-71.222;2024-01-06T01:30:33;19.05;16.86;10.57
82817;PMS5003;72572;46.824;-71.222;2024-01-06T01:32:59;10.85;9.6;4.85
82817;PMS5003;72572;46.824;-71.222;2024-01-06T01:35:22;13.1;10.35;5.45
82817;PMS5003;72572;46.824;-71.222;2024-01-06T01:37:48;9.9;9.05;6.25
82817;PMS5003;72572;46.824;-71.222;2024-01-06T01:40:12;24.65;20.25;12.4
82817;PMS5003;72572;46.824;-71.222;2024-01-06T01:42:40;7.65;6.6;4.1
82817;PMS5003;72572;46.824;-71.222;2024-01-06T01:45:04;14.19;12;6.62
82817;PMS5003;72572;46.824;-71.222;2024-01-06T01:47:29;17.35;16.05;10
82817;PMS5003;72572;46.824;-71.222;2024-01-06T01:49:56;50.84;31.95;17.37
82817;PMS5003;72572;46.824;-71.222;2024-01-06T01:52:21;11.25;8.55;6.35
82817;PMS5003;72572;46.824;-71.222;2024-01-06T01:54:45;18.15;12.2;7.3
82817;PMS5003;72572;46.824;-71.222;2024-01-06T01:57:11;67.6;51.2;24.75
82817;PMS5003;72572;46.824;-71.222;2024-01-06T01:59:35;10.1;10;6.6
82817;PMS5003;72572;46.824;-71.222;2024-01-06T02:02:01;14.38;10.57;7.1
82817;PMS5003;72572;46.824;-71.222;2024-01-06T02:04:26;41.11;28.05;16.05
82817;PMS5003;72572;46.824;-71.222;2024-01-06T02:06:53;7.85;6.65;4.1
82817;PMS5003;72572;46.824;-71.222;2024-01-06T02:09:19;15.45;11.2;7
82817;PMS5003;72572;46.824;-71.222;2024-01-06T02:11:44;9.95;9.32;6.89
82817;PMS5003;72572;46.824;-71.222;2024-01-06T02:14:07;90.33;60.83;30.94
82817;PMS5003;72572;46.824;-71.222;2024-01-06T02:16:33;28.45;24.1;12.25
82817;PMS5003;72572;46.824;-71.222;2024-01-06T02:18:59;11.71;9.76;5.33
82817;PMS5003;72572;46.824;-71.222;2024-01-06T02:21:25;9.55;7.7;5.6
82817;PMS5003;72572;46.824;-71.222;2024-01-06T02:23:50;76.14;52.14;26.1
82817;PMS5003;72572;46.824;-71.222;2024-01-06T02:26:16;9.1;9.1;6.1
82817;PMS5003;72572;46.824;-71.222;2024-01-06T02:28:39;12;8.75;5.7
82817;PMS5003;72572;46.824;-71.222;2024-01-06T02:31:06;11.2;10.05;6.4
82817;PMS5003;72572;46.824;-71.222;2024-01-06T02:33:32;11.35;10.6;6.75
82817;PMS5003;72572;46.824;-71.222;2024-01-06T02:35:57;12.29;9.86;6.48
82817;PMS5003;72572;46.824;-71.222;2024-01-06T02:38:23;32.47;28.16;16.11
82817;PMS5003;72572;46.824;-71.222;2024-01-06T02:40:47;11.2;9.35;6.35
82817;PMS5003;72572;46.824;-71.222;2024-01-06T02:43:13;11.3;11;6.65
82817;PMS5003;72572;46.824;-71.222;2024-01-06T02:45:40;13.15;10.4;6.9
82817;PMS5003;72572;46.824;-71.222;2024-01-06T02:48:03;14.35;10.95;4.9
82817;PMS5003;72572;46.824;-71.222;2024-01-06T02:50:30;13;12.2;6.8
82817;PMS5003;72572;46.824;-71.222;2024-01-06T02:52:56;9.52;8.71;5.67
82817;PMS5003;72572;46.824;-71.222;2024-01-06T02:55:19;7.25;7.05;4
82817;PMS5003;72572;46.824;-71.222;2024-01-06T02:57:45;9.5;8.85;5.65
82817;PMS5003;72572;46.824;-71.222;2024-01-06T03:00:10;10.25;5.65;3.8
82817;PMS5003;72572;46.824;-71.222;2024-01-06T03:02:36;6.85;6.1;4.4
82817;PMS5003;72572;46.824;-71.222;2024-01-06T03:05:01;8.2;6.45;4.9
82817;PMS5003;72572;46.824;-71.222;2024-01-06T03:07:27;12.4;9.85;5.3
82817;PMS5003;72572;46.824;-71.222;2024-01-06T03:09:53;10.14;8.62;6.67
82817;PMS5003;72572;46.824;-71.222;2024-01-06T03:12:16;9.85;7.75;6.05
82817;PMS5003;72572;46.824;-71.222;2024-01-06T03:14:42;10.4;9.15;5.65
82817;PMS5003;72572;46.824;-71.222;2024-01-06T03:17:07;14.55;12.2;8
82817;PMS5003;72572;46.824;-71.222;2024-01-06T03:19:34;12.05;10.9;5.5
82817;PMS5003;72572;46.824;-71.222;2024-01-06T03:21:58;13.1;9.6;4.7
82817;PMS5003;72572;46.824;-71.222;2024-01-06T03:24:27;10.7;9.05;5.6
82817;PMS5003;72572;46.824;-71.222;2024-01-06T03:26:50;10.14;7.1;4.48
82817;PMS5003;72572;46.824;-71.222;2024-01-06T03:29:16;6.95;6.25;3.35
82817;PMS5003;72572;46.824;-71.222;2024-01-06T03:31:42;7.75;5.75;4.65
82817;PMS5003;72572;46.824;-71.222;2024-01-06T03:34:05;8;7.5;5.9
82817;PMS5003;72572;46.824;-71.222;2024-01-06T03:36:34;12.35;7.45;3.85
82817;PMS5003;72572;46.824;-71.222;2024-01-06T03:38:59;11.62;9.81;6.24
82817;PMS5003;72572;46.824;-71.222;2024-01-06T03:41:23;13.65;12.9;9.15
82817;PMS5003;72572;46.824;-71.222;2024-01-06T03:43:49;11.38;9.62;6.38
82817;PMS5003;72572;46.824;-71.222;2024-01-06T03:46:15;13.3;9;6.1
82817;PMS5003;72572;46.824;-71.222;2024-01-06T03:48:41;11.85;9.5;6.1
82817;PMS5003;72572;46.824;-71.222;2024-01-06T03:51:07;7;6.9;4.7
82817;PMS5003;72572;46.824;-71.222;2024-01-06T03:53:33;8.9;8.52;6
82817;PMS5003;72572;46.824;-71.222;2024-01-06T03:55:58;10.05;8.95;7
82817;PMS5003;72572;46.824;-71.222;2024-01-06T03:58:22;9.55;9.15;6.4
82817;PMS5003;72572;46.824;-71.222;2024-01-06T04:00:48;13.62;8.62;5.29
82817;PMS5003;72572;46.824;-71.222;2024-01-06T04:03:15;13.4;13.35;6.7
82817;PMS5003;72572;46.824;-71.222;2024-01-06T04:05:40;11;8;5
82817;PMS5003;72572;46.824;-71.222;2024-01-06T04:08:03;9.1;8.1;5.1
82817;PMS5003;72572;46.824;-71.222;2024-01-06T04:10:29;7.4;7;4.9
82817;PMS5003;72572;46.824;-71.222;2024-01-06T04:12:55;10.65;9.6;5.8
82817;PMS5003;72572;46.824;-71.222;2024-01-06T04:15:21;7.9;7.7;5.8
82817;PMS5003;72572;46.824;-71.222;2024-01-06T04:17:48;11.81;7.48;6.14
82817;PMS5003;72572;46.824;-71.222;2024-01-06T04:20:10;12.15;10;6.75
82817;PMS5003;72572;46.824;-71.222;2024-01-06T04:22:37;8.5;7.25;3.9
82817;PMS5003;72572;46.824;-71.222;2024-01-06T04:25:03;10.4;7.1;4
82817;PMS5003;72572;46.824;-71.222;2024-01-06T04:27:26;9.25;9.15;6.25
82817;PMS5003;72572;46.824;-71.222;2024-01-06T04:29:53;6.8;6.75;4.4
82817;PMS5003;72572;46.824;-71.222;2024-01-06T04:32:16;8.3;5.2;3.1
82817;PMS5003;72572;46.824;-71.222;2024-01-06T04:34:42;12.57;8.9;5.24
82817;PMS5003;72572;46.824;-71.222;2024-01-06T04:37:08;4.1;4;2.8
82817;PMS5003;72572;46.824;-71.222;2024-01-06T04:39:33;5.85;3.8;2.15
82817;PMS5003;72572;46.824;-71.222;2024-01-06T04:41:59;5.1;4.9;2.8
82817;PMS5003;72572;46.824;-71.222;2024-01-06T04:44:24;7.1;6.35;4.7
82817;PMS5003;72572;46.824;-71.222;2024-01-06T04:46:50;7.4;5.55;3
82817;PMS5003;72572;46.824;-71.222;2024-01-06T04:49:16;7;6;3
82817;PMS5003;72572;46.824;-71.222;2024-01-06T04:51:41;6.19;3.81;2.05
82817;PMS5003;72572;46.824;-71.222;2024-01-06T04:54:07;5.65;4.4;3.2
82817;PMS5003;72572;46.824;-71.222;2024-01-06T04:56:33;6.75;5.5;3.35
82817;PMS5003;72572;46.824;-71.222;2024-01-06T04:58:55;6.9;5.8;3.1
82817;PMS5003;72572;46.824;-71.222;2024-01-06T05:01:21;6.6;5.8;2.35
82817;PMS5003;72572;46.824;-71.222;2024-01-06T05:03:46;7.15;6.25;3.95
82817;PMS5003;72572;46.824;-71.222;2024-01-06T05:06:12;6.25;5.8;3
82817;PMS5003;72572;46.824;-71.222;2024-01-06T05:08:41;7.48;6.38;4
82817;PMS5003;72572;46.824;-71.222;2024-01-06T05:11:04;8.9;6.8;4.4
82817;PMS5003;72572;46.824;-71.222;2024-01-06T05:13:30;5.9;5.6;3.2
82817;PMS5003;72572;46.824;-71.222;2024-01-06T05:15:53;5.25;5.2;3.35
82817;PMS5003;72572;46.824;-71.222;2024-01-06T05:18:20;11.8;9.45;3.9
82817;PMS5003;72572;46.824;-71.222;2024-01-06T05:20:45;6.35;5.4;3.8
82817;PMS5003;72572;46.824;-71.222;2024-01-06T05:23:11;6.25;4.1;3.1
82817;PMS5003;72572;46.824;-71.222;2024-01-06T05:25:37;6.14;5;3.48
82817;PMS5003;72572;46.824;-71.222;2024-01-06T05:28:02;4;4;2
82817;PMS5003;72572;46.824;-71.222;2024-01-06T05:30:28;5;5;2.9
82817;PMS5003;72572;46.824;-71.222;2024-01-06T05:32:51;1.1;1.1;0.65
82817;PMS5003;72572;46.824;-71.222;2024-01-06T05:35:17;4.05;3;1
82817;PMS5003;72572;46.824;-71.222;2024-01-06T05:37:44;4.3;3.9;2.8
82817;PMS5003;72572;46.824;-71.222;2024-01-06T05:40:08;5;4.65;3
82817;PMS5003;72572;46.824;-71.222;2024-01-06T05:42:34;6.67;6.57;3.48
82817;PMS5003;72572;46.824;-71.222;2024-01-06T05:45:00;5.25;4;3
82817;PMS5003;72572;46.824;-71.222;2024-01-06T05:47:23;6.65;6.25;3.2
82817;PMS5003;72572;46.824;-71.222;2024-01-06T05:49:50;4.9;3.9;2.6
82817;PMS5003;72572;46.824;-71.222;2024-01-06T05:52:16;9.7;3;0.8
82817;PMS5003;72572;46.824;-71.222;2024-01-06T05:54:41;5.7;3.9;2.3
82817;PMS5003;72572;46.824;-71.222;2024-01-06T05:57:04;4.1;3.75;2.8
82817;PMS5003;72572;46.824;-71.222;2024-01-06T05:59:33;3.76;3.76;3
82817;PMS5003;72572;46.824;-71.222;2024-01-06T06:01:56;2;1.1;0.95
82817;PMS5003;72572;46.824;-71.222;2024-01-06T06:04:22;3.4;3.1;1
82817;PMS5003;72572;46.824;-71.222;2024-01-06T06:06:48;2.05;2;0.35
82817;PMS5003;72572;46.824;-71.222;2024-01-06T06:09:13;1;1;0.95
82817;PMS5003;72572;46.824;-71.222;2024-01-06T06:11:36;1.4;1.4;1
82817;PMS5003;72572;46.824;-71.222;2024-01-06T06:14:03;0.65;0.05;0
82817;PMS5003;72572;46.824;-71.222;2024-01-06T06:16:30;0.81;0.67;0
82817;PMS5003;72572;46.824;-71.222;2024-01-06T06:18:53;1;1;0
82817;PMS5003;72572;46.824;-71.222;2024-01-06T06:21:18;0.65;0;0
82817;PMS5003;72572;46.824;-71.222;2024-01-06T06:23:44;0;0;0
82817;PMS5003;72572;46.824;-71.222;2024-01-06T06:26:12;0;0;0
82817;PMS5003;72572;46.824;-71.222;2024-01-06T06:28:35;0;0;0
82817;PMS5003;72572;46.824;-71.222;2024-01-06T06:31:00;1;0;0
82817;PMS5003;72572;46.824;-71.222;2024-01-06T06:33:27;0;0;0
82817;PMS5003;72572;46.824;-71.222;2024-01-06T06:35:51;0;0;0
82817;PMS5003;72572;46.824;-71.222;2024-01-06T06:38:18;0;0;0
82817;PMS5003;72572;46.824;-71.222;2024-01-06T06:40:40;0;0;0
82817;PMS5003;72572;46.824;-71.222;2024-01-06T06:43:06;0;0;0
82817;PMS5003;72572;46.824;-71.222;2024-01-06T06:45:33;0;0;0
82817;PMS5003;72572;46.824;-71.222;2024-01-06T06:47:56;0;0;0
82817;PMS5003;72572;46.824;-71.222;2024-01-06T06:50:23;0;0;0
82817;PMS5003;72572;46.824;-71.222;2024-01-06T06:52:49;0;0;0
82817;PMS5003;72572;46.824;-71.222;2024-01-06T06:55:12;0;0;0
82817;PMS5003;72572;46.824;-71.222;2024-01-06T06:57:38;0;0;0
82817;PMS5003;72572;46.824;-71.222;2024-01-06T07:00:05;0;0;0
82817;PMS5003;72572;46.824;-71.222;2024-01-06T07:02:29;0;0;0
82817;PMS5003;72572;46.824;-71.222;2024-01-06T07:04:55;0;0;0
82817;PMS5003;72572;46.824;-71.222;2024-01-06T07:07:21;0;0;0
82817;PMS5003;72572;46.824;-71.222;2024-01-06T07:09:47;0;0;0
82817;PMS5003;72572;46.824;-71.222;2024-01-06T07:12:11;0;0;0
82817;PMS5003;72572;46.824;-71.222;2024-01-06T07:14:36;0;0;0
82817;PMS5003;72572;46.824;-71.222;2024-01-06T07:17:02;0;0;0
82817;PMS5003;72572;46.824;-71.222;2024-01-06T07:19:26;0;0;0
82817;PMS5003;72572;46.824;-71.222;2024-01-06T07:21:53;0;0;0
82817;PMS5003;72572;46.824;-71.222;2024-01-06T07:24:19;0;0;0
82817;PMS5003;72572;46.824;-71.222;2024-01-06T07:26:45;0;0;0
82817;PMS5003;72572;46.824;-71.222;2024-01-06T07:29:08;0;0;0
82817;PMS5003;72572;46.824;-71.222;2024-01-06T07:31:33;0.15;0;0
82817;PMS5003;72572;46.824;-71.222;2024-01-06T07:34:00;0;0;0
82817;PMS5003;72572;46.824;-71.222;2024-01-06T07:36:25;0;0;0
82817;PMS5003;72572;46.824;-71.222;2024-01-06T07:38:49;0;0;0
82817;PMS5003;72572;46.824;-71.222;2024-01-06T07:41:15;0;0;0
82817;PMS5003;72572;46.824;-71.222;2024-01-06T07:43:40;0;0;0
82817;PMS5003;72572;46.824;-71.222;2024-01-06T07:46:07;0;0;0
82817;PMS5003;72572;46.824;-71.222;2024-01-06T07:48:31;0;0;0
82817;PMS5003;72572;46.824;-71.222;2024-01-06T07:50:57;0;0;0
82817;PMS5003;72572;46.824;-71.222;2024-01-06T07:53:22;0;0;0
82817;PMS5003;72572;46.824;-71.222;2024-01-06T07:55:48;0;0;0
82817;PMS5003;72572;46.824;-71.222;2024-01-06T07:58:14;0;0;0
82817;PMS5003;72572;46.824;-71.222;2024-01-06T08:00:40;0;0;0
82817;PMS5003;72572;46.824;-71.222;2024-01-06T08:03:03;0;0;0
82817;PMS5003;72572;46.824;-71.222;2024-01-06T08:05:29;0.15;0;0
82817;PMS5003;72572;46.824;-71.222;2024-01-06T08:07:55;0;0;0
82817;PMS5003;72572;46.824;-71.222;2024-01-06T08:10:19;0;0;0
82817;PMS5003;72572;46.824;-71.222;2024-01-06T08:12:45;0;0;0
82817;PMS5003;72572;46.824;-71.222;2024-01-06T08:15:12;0;0;0
82817;PMS5003;72572;46.824;-71.222;2024-01-06T08:17:35;0;0;0
82817;PMS5003;72572;46.824;-71.222;2024-01-06T08:20:03;0;0;0
82817;PMS5003;72572;46.824;-71.222;2024-01-06T08:22:28;1;0;0
82817;PMS5003;72572;46.824;-71.222;2024-01-06T08:24:53;0.95;0;0
82817;PMS5003;72572;46.824;-71.222;2024-01-06T08:27:17;0;0;0
82817;PMS5003;72572;46.824;-71.222;2024-01-06T08:29:49;2.24;0;0
82817;PMS5003;72572;46.824;-71.222;2024-01-06T08:32:13;0;0;0
82817;PMS5003;72572;46.824;-71.222;2024-01-06T08:34:40;0.95;0.2;0
82817;PMS5003;72572;46.824;-71.222;2024-01-06T08:37:04;0.1;0;0
82817;PMS5003;72572;46.824;-71.222;2024-01-06T08:39:29;0;0;0
82817;PMS5003;72572;46.824;-71.222;2024-01-06T08:41:55;0.5;0.5;0
82817;PMS5003;72572;46.824;-71.222;2024-01-06T08:44:21;0.65;0.05;0
82817;PMS5003;72572;46.824;-71.222;2024-01-06T08:46:46;0.19;0.19;0
82817;PMS5003;72572;46.824;-71.222;2024-01-06T08:49:12;0.1;0.1;0
82817;PMS5003;72572;46.824;-71.222;2024-01-06T08:51:36;0;0;0
82817;PMS5003;72572;46.824;-71.222;2024-01-06T08:54:03;0.35;0;0
82817;PMS5003;72572;46.824;-71.222;2024-01-06T08:56:28;0;0;0
82817;PMS5003;72572;46.824;-71.222;2024-01-06T08:58:52;0.05;0.05;0
82817;PMS5003;72572;46.824;-71.222;2024-01-06T09:21:47;0;0;0
82817;PMS5003;72572;46.824;-71.222;2024-01-06T09:21:56;0;0;0
82817;PMS5003;72572;46.824;-71.222;2024-01-06T09:22:09;0;0;0
82817;PMS5003;72572;46.824;-71.222;2024-01-06T09:22:18;0.38;0;0
82817;PMS5003;72572;46.824;-71.222;2024-01-06T09:22:25;0;0;0
82817;PMS5003;72572;46.824;-71.222;2024-01-06T09:22:33;0.1;0.1;0
82817;PMS5003;72572;46.824;-71.222;2024-01-06T09:23:22;0.24;0.24;0
82817;PMS5003;72572;46.824;-71.222;2024-01-06T09:25:44;0.8;0;0
82817;PMS5003;72572;46.824;-71.222;2024-01-06T09:28:11;0.5;0.5;0
82817;PMS5003;72572;46.824;-71.222;2024-01-06T09:30:37;0;0;0
82817;PMS5003;72572;46.824;-71.222;2024-01-06T09:33:00;1;1;0.8
82817;PMS5003;72572;46.824;-71.222;2024-01-06T09:35:26;0;0;0
82817;PMS5003;72572;46.824;-71.222;2024-01-06T09:37:52;1;0.25;0
82817;PMS5003;72572;46.824;-71.222;2024-01-06T09:40:21;0.65;0.65;0
82817;PMS5003;72572;46.824;-71.222;2024-01-06T09:42:42;2.5;1;0
82817;PMS5003;72572;46.824;-71.222;2024-01-06T09:45:09;1;1;1
82817;PMS5003;72572;46.824;-71.222;2024-01-06T09:47:34;2.33;1;0
82817;PMS5003;72572;46.824;-71.222;2024-01-06T09:50:00;0.47;0.47;0.37
82817;PMS5003;72572;46.824;-71.222;2024-01-06T09:52:26;1.5;0.8;0
82817;PMS5003;72572;46.824;-71.222;2024-01-06T09:54:52;0.95;0.95;0
82817;PMS5003;72572;46.824;-71.222;2024-01-06T09:57:15;1;1;0.11
82817;PMS5003;72572;46.824;-71.222;2024-01-06T09:59:43;0.37;0.37;0.37
82817;PMS5003;72572;46.824;-71.222;2024-01-06T10:02:07;1.95;0.95;0
82817;PMS5003;72572;46.824;-71.222;2024-01-06T10:04:30;3.05;1.2;0.65
82817;PMS5003;72572;46.824;-71.222;2024-01-06T10:06:56;1;1;0
82817;PMS5003;72572;46.824;-71.222;2024-01-06T10:09:27;1.4;1;0
82817;PMS5003;72572;46.824;-71.222;2024-01-06T10:11:49;1.11;1;0.79
82817;PMS5003;72572;46.824;-71.222;2024-01-06T10:14:14;3;2.26;0.63
82817;PMS5003;72572;46.824;-71.222;2024-01-06T10:16:38;4.5;3.9;2.8
82817;PMS5003;72572;46.824;-71.222;2024-01-06T10:19:04;3.26;1.74;0.95
82817;PMS5003;72572;46.824;-71.222;2024-01-06T10:21:31;1;1;1
82817;PMS5003;72572;46.824;-71.222;2024-01-06T10:23:55;2.89;2.33;0.78
82817;PMS5003;72572;46.824;-71.222;2024-01-06T10:26:19;3.95;3.43;1.86
82817;PMS5003;72572;46.824;-71.222;2024-01-06T10:28:48;4;4;2.2
82817;PMS5003;72572;46.824;-71.222;2024-01-06T10:31:12;3.4;1.5;0.75
82817;PMS5003;72572;46.824;-71.222;2024-01-06T10:33:37;2.6;2.6;1
82817;PMS5003;72572;46.824;-71.222;2024-01-06T10:36:03;6;3.75;1.7
82817;PMS5003;72572;46.824;-71.222;2024-01-06T10:38:26;4.4;1.6;0.6
82817;PMS5003;72572;46.824;-71.222;2024-01-06T10:40:55;3.4;3.4;1.8
82817;PMS5003;72572;46.824;-71.222;2024-01-06T10:43:19;4;3.52;1.24
82817;PMS5003;72572;46.824;-71.222;2024-01-06T10:45:42;4.3;3.65;1
82817;PMS5003;72572;46.824;-71.222;2024-01-06T10:48:08;3.7;3.5;0.8
82817;PMS5003;72572;46.824;-71.222;2024-01-06T10:50:35;4.15;3.65;2.3
82817;PMS5003;72572;46.824;-71.222;2024-01-06T10:52:59;5.5;5.3;2.6
82817;PMS5003;72572;46.824;-71.222;2024-01-06T10:55:24;3.9;3.25;2.4
82817;PMS5003;72572;46.824;-71.222;2024-01-06T10:57:48;1.4;1.4;0.5
82817;PMS5003;72572;46.824;-71.222;2024-01-06T11:00:14;4.14;3.05;1.95
82817;PMS5003;72572;46.824;-71.222;2024-01-06T11:02:40;4.5;4.5;3
82817;PMS5003;72572;46.824;-71.222;2024-01-06T11:05:07;3.1;3.1;1.8
82817;PMS5003;72572;46.824;-71.222;2024-01-06T11:07:31;3.5;3.5;1
82817;PMS5003;72572;46.824;-71.222;2024-01-06T11:09:57;4.15;3.4;1.8
82817;PMS5003;72572;46.824;-71.222;2024-01-06T11:12:21;2.55;2.55;1.7
82817;PMS5003;72572;46.824;-71.222;2024-01-06T11:14:45;3.7;2.7;1.5
82817;PMS5003;72572;46.824;-71.222;2024-01-06T11:17:12;3.29;3.1;1.76
82817;PMS5003;72572;46.824;-71.222;2024-01-06T11:19:45;6.05;4.2;3
82817;PMS5003;72572;46.824;-71.222;2024-01-06T11:22:17;5;3.95;3
82817;PMS5003;72572;46.824;-71.222;2024-01-06T11:24:28;2.3;2.3;1
82817;PMS5003;72572;46.824;-71.222;2024-01-06T11:26:56;2.3;2.3;0.9
82817;PMS5003;72572;46.824;-71.222;2024-01-06T11:29:17;3.35;2.8;1
82817;PMS5003;72572;46.824;-71.222;2024-01-06T11:31:43;3.8;3;1.5
82817;PMS5003;72572;46.824;-71.222;2024-01-06T11:34:12;3.67;3.29;1.57
82817;PMS5003;72572;46.824;-71.222;2024-01-06T11:36:36;1.2;1.2;0.8
82817;PMS5003;72572;46.824;-71.222;2024-01-06T11:39:01;3.75;2.5;0.75
82817;PMS5003;72572;46.824;-71.222;2024-01-06T11:41:54;3.1;3.1;1
82817;PMS5003;72572;46.824;-71.222;2024-01-06T11:43:50;3.3;2.6;1
82817;PMS5003;72572;46.824;-71.222;2024-01-06T11:46:16;1.1;1.1;0.65
82817;PMS5003;72572;46.824;-71.222;2024-01-06T11:48:41;3;3;1
82817;PMS5003;72572;46.824;-71.222;2024-01-06T11:51:08;3.86;3.24;1
82817;PMS5003;72572;46.824;-71.222;2024-01-06T11:53:32;3.2;2.5;0.4
82817;PMS5003;72572;46.824;-71.222;2024-01-06T11:55:59;3;2.8;1
82817;PMS5003;72572;46.824;-71.222;2024-01-06T11:58:22;2.65;2;1
82817;PMS5003;72572;46.824;-71.222;2024-01-06T12:00:54;4.1;3.65;1.2
82817;PMS5003;72572;46.824;-71.222;2024-01-06T12:03:15;2.2;2.2;0.8
82817;PMS5003;72572;46.824;-71.222;2024-01-06T12:05:39;2.3;1.7;0.95
82817;PMS5003;72572;46.824;-71.222;2024-01-06T12:08:03;3.1;3.1;1
82817;PMS5003;72572;46.824;-71.222;2024-01-06T12:10:31;2.9;2.6;1
82817;PMS5003;72572;46.824;-71.222;2024-01-06T12:12:56;4.2;4.2;3
82817;PMS5003;72572;46.824;-71.222;2024-01-06T12:15:21;2.4;2;1
82817;PMS5003;72572;46.824;-71.222;2024-01-06T12:17:45;2.35;2;0
82817;PMS5003;72572;46.824;-71.222;2024-01-06T12:20:10;3.9;1;1
82817;PMS5003;72572;46.824;-71.222;2024-01-06T12:22:35;1.5;1;0
82817;PMS5003;72572;46.824;-71.222;2024-01-06T12:25:00;0.67;0.67;0
82817;PMS5003;72572;46.824;-71.222;2024-01-06T12:27:28;1.2;1.2;0.25
82817;PMS5003;72572;46.824;-71.222;2024-01-06T12:29:52;2;1.4;0.95
82817;PMS5003;72572;46.824;-71.222;2024-01-06T12:32:17;0.65;0.65;0
82817;PMS5003;72572;46.824;-71.222;2024-01-06T12:34:43;4.8;3.4;1.8
82817;PMS5003;72572;46.824;-71.222;2024-01-06T12:37:07;0.8;0.8;0.4
82817;PMS5003;72572;46.824;-71.222;2024-01-06T12:39:33;1;1;0.5
82817;PMS5003;72572;46.824;-71.222;2024-01-06T12:42:01;1;1;0.62
82817;PMS5003;72572;46.824;-71.222;2024-01-06T12:44:25;2.5;2.5;0.25
82817;PMS5003;72572;46.824;-71.222;2024-01-06T12:46:50;2.9;2.6;0.8
82817;PMS5003;72572;46.824;-71.222;2024-01-06T12:49:15;3.65;3.65;1.5
82817;PMS5003;72572;46.824;-71.222;2024-01-06T12:51:38;4.45;3.65;2.9
82817;PMS5003;72572;46.824;-71.222;2024-01-06T12:54:05;3.05;2.3;1
82817;PMS5003;72572;46.824;-71.222;2024-01-06T12:56:31;3.25;3;1
82817;PMS5003;72572;46.824;-71.222;2024-01-06T12:58:56;3.33;3.33;2.05
82817;PMS5003;72572;46.824;-71.222;2024-01-06T13:01:22;4.95;4.1;3
82817;PMS5003;72572;46.824;-71.222;2024-01-06T13:03:48;3.9;3.1;1.2
82817;PMS5003;72572;46.824;-71.222;2024-01-06T13:06:12;3.4;2.3;0.65
82817;PMS5003;72572;46.824;-71.222;2024-01-06T13:08:37;5.3;3;1
82817;PMS5003;72572;46.824;-71.222;2024-01-06T13:11:03;2.2;2.2;0.95
82817;PMS5003;72572;46.824;-71.222;2024-01-06T13:13:26;3.85;3.85;1.5
82817;PMS5003;72572;46.824;-71.222;2024-01-06T13:15:53;3.67;2.76;2.05
82817;PMS5003;72572;46.824;-71.222;2024-01-06T13:18:20;2.65;1;1
82817;PMS5003;72572;46.824;-71.222;2024-01-06T13:20:43;3.15;2.9;1.2
82817;PMS5003;72572;46.824;-71.222;2024-01-06T13:23:09;3.1;3;0.95
82817;PMS5003;72572;46.824;-71.222;2024-01-06T13:25:34;3.9;3.4;3.2
82817;PMS5003;72572;46.824;-71.222;2024-01-06T13:28:01;6.75;6.4;3.5
82817;PMS5003;72572;46.824;-71.222;2024-01-06T13:30:24;7.2;7.2;4.8
82817;PMS5003;72572;46.824;-71.222;2024-01-06T13:32:50;13.67;9.19;4.95
82817;PMS5003;72572;46.824;-71.222;2024-01-06T13:35:17;17.25;9.75;4.8
82817;PMS5003;72572;46.824;-71.222;2024-01-06T13:37:41;9.25;7.6;3.5
82817;PMS5003;72572;46.824;-71.222;2024-01-06T13:40:07;7.95;6.5;4
82817;PMS5003;72572;46.824;-71.222;2024-01-06T13:42:32;8.05;6.75;4
82817;PMS5003;72572;46.824;-71.222;2024-01-06T13:44:56;6.25;6.25;3.4
82817;PMS5003;72572;46.824;-71.222;2024-01-06T13:47:23;4.4;4.4;3
82817;PMS5003;72572;46.824;-71.222;2024-01-06T13:49:48;5.38;3.95;1.86
82817;PMS5003;72572;46.824;-71.222;2024-01-06T13:52:13;5.1;4.8;3
82817;PMS5003;72572;46.824;-71.222;2024-01-06T13:54:40;5.6;4.95;2.7
82817;PMS5003;72572;46.824;-71.222;2024-01-06T13:57:04;5.9;4;3
82817;PMS5003;72572;46.824;-71.222;2024-01-06T13:59:30;5.45;4.7;1.7
82817;PMS5003;72572;46.824;-71.222;2024-01-06T14:01:55;3.1;3.1;2.3
82817;PMS5003;72572;46.824;-71.222;2024-01-06T14:04:18;6.8;5.3;3.8
82817;PMS5003;72572;46.824;-71.222;2024-01-06T14:06:45;11.24;7.43;3.67
82817;PMS5003;72572;46.824;-71.222;2024-01-06T14:09:11;8.25;6.65;4
82817;PMS5003;72572;46.824;-71.222;2024-01-06T14:11:35;3.5;3.5;2
82817;PMS5003;72572;46.824;-71.222;2024-01-06T14:14:02;5.55;4.15;2.85
82817;PMS5003;72572;46.824;-71.222;2024-01-06T14:16:28;7.75;4.3;2.6
82817;PMS5003;72572;46.824;-71.222;2024-01-06T14:18:53;4.95;4.7;2.8
82817;PMS5003;72572;46.824;-71.222;2024-01-06T14:21:16;4.95;4;3
82817;PMS5003;72572;46.824;-71.222;2024-01-06T14:23:44;4;3;2
82817;PMS5003;72572;46.824;-71.222;2024-01-06T14:26:07;3;3;1.74
82817;PMS5003;72572;46.824;-71.222;2024-01-06T14:28:33;28.6;25.95;16
82817;PMS5003;72572;46.824;-71.222;2024-01-06T14:30:59;12.21;9.47;5.84
82817;PMS5003;72572;46.824;-71.222;2024-01-06T14:33:25;41.25;29.3;14.8
82817;PMS5003;72572;46.824;-71.222;2024-01-06T14:35:49;15;9.6;5.9
82817;PMS5003;72572;46.824;-71.222;2024-01-06T14:38:16;45.9;37.85;22.1